LBB weather

Lubbock Preston Smith International Airport
Lubbock, Texas, United States

Public forecast

Using degrees Fahrenheit for public forecast. Weather courtesy of forecast.io.

Current aviation weather report (METAR) for Lubbock Preston Smith International Airport

Retrieved 2020/01/21 21:53 UTC (37 minutes ago):

KLBB 212153Z 18017KT 10SM -RA OVC055 09/M03 A3011 RMK AO2 RAB45 SLP188 PCPN VRY LGT P0000 T00891028

Aviation forecast (TAF) for Lubbock Preston Smith International Airport

Retrieved 2020/01/21 18:30 UTC (4 hours ago):

TAF KLBB 211729Z 2118/2218 17015KT P6SM VCSH OVC100 FM220200 17015KT 6SM BR OVC025 TEMPO 2202/2206 4SM -RA OVC008 FM221500 23011KT P6SM BKN070